Time;durP1;ratioP1;P1;durP2;ratioP2;P2;SDS_P1;SDS_P2;PMS_P1;PMS_P2;Temp;Humidity;BMP_temperature;BMP_pressure;BME280_temperature;BME280_humidity;BME280_pressure;Samples;Min_cycle;Max_cycle;Signal;HPM_P1;HPM_P2
2021/08/30 00:00:56;;;;;;;1.33;0.20;;;;;;;10.80;100.00;93060.47;2104157;28;20027;-84
2021/08/30 00:01:57;;;;;;;0.35;0.20;;;;;;;10.88;100.00;93055.69;2090108;28;20091;-85
2021/08/30 00:02:58;;;;;;;0.20;0.20;;;;;;;10.89;100.00;93057.97;2089704;28;20493;-83
2021/08/30 00:03:59;;;;;;;1.30;0.25;;;;;;;10.84;100.00;93050.41;2089825;28;20028;-86
2021/08/30 00:05:04;;;;;;;0.50;0.25;;;;;;;10.81;100.00;93051.28;2090501;28;20440;-83
2021/08/30 00:06:06;;;;;;;0.43;0.22;;;;;;;10.76;100.00;93049.84;2090353;28;20082;-85
2021/08/30 00:07:07;;;;;;;0.35;0.30;;;;;;;10.75;100.00;93052.94;2106645;28;20076;-83
2021/08/30 00:08:08;;;;;;;0.40;0.40;;;;;;;10.75;100.00;93052.94;2115325;27;20525;-85
2021/08/30 00:09:09;;;;;;;0.50;0.50;;;;;;;10.75;100.00;93050.25;2107562;28;20055;-84
2021/08/30 00:10:10;;;;;;;1.15;0.52;;;;;;;10.80;100.00;93055.88;2110789;28;20073;-83
2021/08/30 00:11:11;;;;;;;0.88;0.50;;;;;;;10.76;100.00;93052.53;2114797;27;20016;-85
2021/08/30 00:12:12;;;;;;;0.60;0.60;;;;;;;10.77;100.00;93051.34;2107185;28;20110;-83
2021/08/30 00:13:13;;;;;;;0.30;0.30;;;;;;;10.78;100.00;93049.44;2106525;28;20028;-83
2021/08/30 00:14:14;;;;;;;1.05;0.70;;;;;;;10.79;100.00;93053.59;2098310;28;20055;-86
2021/08/30 00:15:15;;;;;;;0.70;0.70;;;;;;;10.72;100.00;93054.53;2098342;28;20032;-87
2021/08/30 00:16:16;;;;;;;1.02;0.70;;;;;;;10.80;100.00;93055.88;2102399;28;20027;-85
2021/08/30 00:17:18;;;;;;;1.08;0.68;;;;;;;10.78;100.00;93052.09;2090546;28;20104;-85
2021/08/30 00:18:19;;;;;;;0.60;0.60;;;;;;;10.80;100.00;93052.44;2094983;28;20025;-86
2021/08/30 00:19:20;;;;;;;0.50;0.50;;;;;;;10.81;100.00;93056.63;2098469;28;20020;-87
2021/08/30 00:20:22;;;;;;;0.63;0.60;;;;;;;10.79;100.00;93045.56;2090272;28;20028;-84
2021/08/30 00:21:23;;;;;;;0.63;0.63;;;;;;;10.80;100.00;93047.84;2089937;28;20068;-88
2021/08/30 00:22:24;;;;;;;0.90;0.85;;;;;;;10.74;100.00;93051.44;2097152;28;20117;-85
2021/08/30 00:23:25;;;;;;;1.50;0.68;;;;;;;10.75;100.00;93053.69;2112139;28;20028;-85
2021/08/30 00:24:26;;;;;;;0.57;0.57;;;;;;;10.81;100.00;93046.66;2106511;28;20047;-85
2021/08/30 00:25:27;;;;;;;0.70;0.70;;;;;;;10.81;100.00;93043.25;2090073;28;20490;-83
2021/08/30 00:26:28;;;;;;;0.60;0.60;;;;;;;10.77;100.00;93048.69;2098490;28;20032;-84
2021/08/30 00:27:29;;;;;;;1.55;0.90;;;;;;;10.78;100.00;93046.75;2089714;28;20160;-86
2021/08/30 00:28:32;;;;;;;1.13;1.00;;;;;;;10.73;100.00;93053.34;2098316;28;20380;-85
2021/08/30 00:29:33;;;;;;;0.60;0.60;;;;;;;10.86;100.00;93042.00;2106881;28;20031;-85
2021/08/30 00:30:34;;;;;;;0.95;0.60;;;;;;;10.83;100.00;93044.31;2106697;28;20473;-84
2021/08/30 00:31:34;;;;;;;0.82;0.82;;;;;;;10.81;100.00;93040.56;2106386;28;20473;-86
2021/08/30 00:32:36;;;;;;;1.63;0.80;;;;;;;10.72;100.00;93043.09;2096433;28;20032;-84
2021/08/30 00:33:38;;;;;;;1.35;0.95;;;;;;;10.66;100.00;93045.50;2102028;28;20048;-83
2021/08/30 00:34:39;;;;;;;0.85;0.82;;;;;;;10.67;100.00;93051.59;2098350;28;20115;-84
2021/08/30 00:35:40;;;;;;;0.68;0.68;;;;;;;10.63;100.00;93045.59;2105945;28;20020;-85
2021/08/30 00:36:41;;;;;;;0.63;0.63;;;;;;;10.65;100.00;93046.66;2098298;28;20070;-83
2021/08/30 00:37:42;;;;;;;0.80;0.80;;;;;;;10.66;100.00;93047.41;2097888;28;20703;-85
2021/08/30 00:38:43;;;;;;;0.73;0.73;;;;;;;10.67;100.00;93051.59;2114282;28;20065;-83
2021/08/30 00:39:46;;;;;;;0.90;0.90;;;;;;;10.65;100.00;93051.25;2106251;28;20036;-85
2021/08/30 00:40:47;;;;;;;1.67;0.85;;;;;;;10.67;100.00;93040.88;2106920;28;20408;-86
2021/08/30 00:41:56;;;;;;;1.02;0.93;;;;;;;10.67;100.00;93052.38;2115118;28;20643;-82
2021/08/30 00:42:59;;;;;;;1.05;0.80;;;;;;;10.60;100.00;93047.16;2107526;28;20024;-84
2021/08/30 00:44:00;;;;;;;1.00;0.80;;;;;;;10.61;100.00;93043.31;2106539;28;20058;-84
2021/08/30 00:45:09;;;;;;;0.75;0.60;;;;;;;10.64;100.00;93047.09;2098267;28;20052;-87
2021/08/30 00:46:16;;;;;;;0.70;0.70;;;;;;;10.71;100.00;93047.69;2099435;28;20444;-85
2021/08/30 00:47:17;;;;;;;1.13;0.90;;;;;;;10.72;100.00;93045.75;2097965;28;20052;-87
2021/08/30 00:48:19;;;;;;;3.42;0.90;;;;;;;10.73;100.00;93044.59;2098063;28;20424;-86
2021/08/30 00:49:23;;;;;;;1.10;1.00;;;;;;;10.75;100.00;93042.22;2098232;28;20025;-86
2021/08/30 00:50:24;;;;;;;0.95;0.95;;;;;;;10.74;100.00;93044.16;2099401;28;20359;-84
2021/08/30 00:51:25;;;;;;;0.60;0.60;;;;;;;10.76;100.00;93041.84;2106405;28;20070;-84
2021/08/30 00:52:26;;;;;;;2.80;0.60;;;;;;;10.71;100.00;93042.34;2090065;28;20405;-85
2021/08/30 00:53:27;;;;;;;0.60;0.60;;;;;;;10.71;100.00;93034.31;2089696;28;20538;-87
2021/08/30 00:54:28;;;;;;;1.92;0.70;;;;;;;10.71;100.00;93033.53;2090034;28;20024;-83
2021/08/30 00:55:29;;;;;;;0.95;0.90;;;;;;;10.68;100.00;93037.06;2089589;28;20504;-86
2021/08/30 00:56:31;;;;;;;1.20;1.05;;;;;;;10.71;100.00;93041.56;2106510;28;20028;-84
2021/08/30 00:57:32;;;;;;;0.98;0.90;;;;;;;10.71;100.00;93033.53;2112365;28;20077;-84
2021/08/30 00:58:33;;;;;;;0.70;0.70;;;;;;;10.70;100.00;93035.47;2089690;28;20099;-85
2021/08/30 00:59:38;;;;;;;0.93;0.82;;;;;;;10.71;100.00;93042.34;2104654;28;20032;-85
2021/08/30 01:00:40;;;;;;;0.75;0.75;;;;;;;10.70;100.00;93040.06;2114853;28;20104;-85
2021/08/30 01:01:42;;;;;;;1.45;0.70;;;;;;;10.74;100.00;93030.78;2106530;28;20028;-83
2021/08/30 01:02:43;;;;;;;0.90;0.70;;;;;;;10.74;100.00;93032.72;2106579;28;20031;-84
2021/08/30 01:03:44;;;;;;;0.98;0.70;;;;;;;10.78;100.00;93036.81;2105826;28;20032;-85
2021/08/30 01:04:47;;;;;;;0.70;0.70;;;;;;;10.71;100.00;93031.66;2090005;28;20025;-83
2021/08/30 01:05:54;;;;;;;0.70;0.70;;;;;;;10.79;100.00;93035.63;2090461;28;20501;-84
2021/08/30 01:07:06;;;;;;;0.40;0.40;;;;;;;10.75;100.00;93036.88;2091101;28;20056;-83
2021/08/30 01:08:40;;;;;;;0.50;0.50;;;;;;;10.75;100.00;93034.97;2092431;28;20502;-85
2021/08/30 01:09:47;;;;;;;0.50;0.50;;;;;;;10.78;100.00;93028.03;2096248;28;20120;-85
2021/08/30 01:10:56;;;;;;;5.47;0.52;;;;;;;10.77;100.00;93037.97;2098779;28;20389;-83
2021/08/30 01:12:11;;;;;;;0.60;0.60;;;;;;;10.81;100.00;93032.56;2091902;28;20115;-84
2021/08/30 01:13:29;;;;;;;0.30;0.30;;;;;;;10.79;100.00;93032.22;2102027;28;20053;-84
2021/08/30 01:14:34;;;;;;;1.25;0.45;;;;;;;10.74;100.00;93030.03;2100338;28;20115;-85
2021/08/30 01:15:40;;;;;;;0.30;0.30;;;;;;;10.74;100.00;93028.13;2098589;28;20032;-82
2021/08/30 01:16:42;;;;;;;3.05;0.43;;;;;;;10.75;100.00;93028.88;2091131;28;20017;-86
2021/08/30 01:17:45;;;;;;;2.95;0.40;;;;;;;10.76;100.00;93033.06;2097948;28;20468;-86
2021/08/30 01:18:49;;;;;;;0.70;0.65;;;;;;;10.71;100.00;93030.88;2106289;28;20028;-87
2021/08/30 01:20:10;;;;;;;0.90;0.73;;;;;;;10.76;100.00;93033.06;2106621;28;20047;-86
2021/08/30 01:21:14;;;;;;;1.98;1.83;;;;;;;10.76;100.00;93033.06;2108741;28;20032;-83
2021/08/30 01:22:16;;;;;;;1.30;1.20;;;;;;;10.78;100.00;93034.13;2106599;28;20027;-84
2021/08/30 01:23:19;;;;;;;1.00;1.00;;;;;;;10.71;100.00;93026.31;2098025;28;20030;-85
2021/08/30 01:24:21;;;;;;;1.60;1.27;;;;;;;10.75;100.00;93028.88;2097317;28;20024;-86
2021/08/30 01:25:22;;;;;;;2.30;1.38;;;;;;;10.77;100.00;93021.94;2098021;28;20060;-84
2021/08/30 01:26:29;;;;;;;1.45;1.35;;;;;;;10.83;100.00;93028.28;2097780;28;20027;-85
2021/08/30 01:27:31;;;;;;;1.65;1.55;;;;;;;10.83;100.00;93028.28;2090990;28;20574;-83
2021/08/30 01:28:37;;;;;;;1.50;1.40;;;;;;;10.89;100.00;93025.09;2106304;28;20019;-82
2021/08/30 01:29:47;;;;;;;1.50;1.40;;;;;;;10.83;100.00;93030.19;2113444;28;20098;-86
2021/08/30 01:30:49;;;;;;;1.55;1.45;;;;;;;10.77;100.00;93024.63;2097721;28;20079;-84
2021/08/30 01:31:57;;;;;;;1.65;1.55;;;;;;;10.78;100.00;93031.47;2081389;28;20052;-86
2021/08/30 01:33:02;;;;;;;1.90;1.73;;;;;;;10.77;100.00;93026.53;2083122;28;20096;-86
2021/08/30 01:34:04;;;;;;;1.70;1.60;;;;;;;10.74;100.00;93027.38;2096906;28;20437;-84
2021/08/30 01:35:12;;;;;;;1.70;1.60;;;;;;;10.77;100.00;93023.88;2104288;28;20101;-86
2021/08/30 01:36:13;;;;;;;1.83;1.73;;;;;;;10.72;100.00;93029.72;2105956;28;20028;-85
2021/08/30 01:37:14;;;;;;;2.13;1.90;;;;;;;10.74;100.00;93025.44;2097869;28;20555;-85
2021/08/30 01:38:15;;;;;;;1.92;1.83;;;;;;;10.80;100.00;93028.38;2102291;28;20019;-86
2021/08/30 01:39:18;;;;;;;1.50;1.40;;;;;;;10.83;100.00;93028.28;2106134;28;20062;-84
2021/08/30 01:40:21;;;;;;;3.83;1.10;;;;;;;10.85;100.00;93025.19;2105894;28;20035;-84
2021/08/30 01:41:22;;;;;;;1.15;1.05;;;;;;;10.79;100.00;93024.94;2089778;28;20107;-84
2021/08/30 01:42:25;;;;;;;1.27;1.17;;;;;;;10.81;100.00;93021.88;2089777;28;20358;-85
2021/08/30 01:43:27;;;;;;;1.35;1.15;;;;;;;10.77;100.00;93021.19;2098314;28;20535;-85
2021/08/30 01:44:29;;;;;;;1.20;1.10;;;;;;;10.73;100.00;93020.53;2089874;28;20047;-84
2021/08/30 01:45:32;;;;;;;1.80;1.70;;;;;;;10.74;100.00;93022.78;2087711;28;20032;-83
2021/08/30 01:46:35;;;;;;;1.67;1.30;;;;;;;10.76;100.00;93019.69;2090107;28;20037;-83
2021/08/30 01:47:38;;;;;;;1.35;1.20;;;;;;;10.80;100.00;93033.72;2089789;28;20033;-84
2021/08/30 01:48:47;;;;;;;2.85;1.20;;;;;;;10.75;100.00;93026.19;2094899;28;20180;-84
2021/08/30 01:50:00;;;;;;;0.70;0.70;;;;;;;10.75;100.00;93029.63;2098733;28;20028;-86
2021/08/30 01:51:03;;;;;;;0.90;0.90;;;;;;;10.72;100.00;93019.78;2099576;28;20029;-86
2021/08/30 01:52:04;;;;;;;1.10;1.00;;;;;;;10.76;100.00;93025.78;2089764;28;20021;-84
2021/08/30 01:53:08;;;;;;;3.88;1.00;;;;;;;10.74;100.00;93025.44;2089625;28;20070;-86
2021/08/30 01:54:10;;;;;;;1.00;0.70;;;;;;;10.76;100.00;93023.13;2106544;28;20019;-85
2021/08/30 01:55:24;;;;;;;0.60;0.60;;;;;;;10.75;100.00;93029.63;2105762;28;20446;-85
2021/08/30 01:56:28;;;;;;;1.65;0.88;;;;;;;10.70;100.00;93027.44;2093312;28;20028;-85
2021/08/30 01:57:29;;;;;;;3.17;0.82;;;;;;;10.70;100.00;93032.78;2098526;28;20544;-84
2021/08/30 02:00:53;;;;;;;0.77;0.77;;;;;;;10.79;100.00;93024.19;2108415;28;20020;-84
2021/08/30 02:01:54;;;;;;;0.90;0.90;;;;;;;10.83;100.00;93028.28;2105882;28;20115;-85
2021/08/30 02:02:54;;;;;;;0.82;0.82;;;;;;;10.76;100.00;93028.47;2109665;28;20499;-84
2021/08/30 02:03:56;;;;;;;0.80;0.80;;;;;;;10.77;100.00;93023.88;2105809;28;20063;-83
2021/08/30 02:05:00;;;;;;;0.80;0.80;;;;;;;10.76;100.00;93023.13;2114489;28;20480;-85
2021/08/30 02:07:07;;;;;;;;;;;;;;;10.75;100.00;93026.94;2136450;27;20185;-82
2021/08/30 02:08:08;;;;;;;0.63;0.63;;;;;;;10.76;100.00;93019.69;2126459;27;19976;-84
2021/08/30 02:09:09;;;;;;;0.75;0.75;;;;;;;10.72;100.00;93024.38;2116440;28;20091;-83
2021/08/30 02:10:10;;;;;;;1.05;0.75;;;;;;;10.74;100.00;93016.69;2128247;27;20468;-84
2021/08/30 02:11:14;;;;;;;0.73;0.73;;;;;;;10.73;100.00;93020.53;2112395;28;20023;-85
2021/08/30 02:12:15;;;;;;;0.77;0.65;;;;;;;10.72;100.00;93019.03;2112990;28;20094;-87
2021/08/30 02:13:18;;;;;;;1.02;0.88;;;;;;;10.76;100.00;93022.38;2112433;28;20466;-84
2021/08/30 02:14:20;;;;;;;0.90;0.90;;;;;;;10.81;100.00;93022.59;2108646;28;20385;-84
2021/08/30 02:15:21;;;;;;;0.82;0.82;;;;;;;10.76;100.00;93022.38;2112251;27;20020;-87
2021/08/30 02:16:22;;;;;;;1.00;1.00;;;;;;;10.72;100.00;93021.69;2121021;27;20028;-86
2021/08/30 02:17:30;;;;;;;2.08;1.13;;;;;;;10.74;100.00;93022.78;2120959;28;20064;-84
2021/08/30 02:18:46;;;;;;;1.58;1.30;;;;;;;10.76;100.00;93030.38;2113473;28;20539;-86
2021/08/30 02:20:07;;;;;;;1.20;1.10;;;;;;;10.66;100.00;93034.03;2116579;27;20028;-85
2021/08/30 02:21:33;;;;;;;1.70;1.05;;;;;;;10.70;100.00;93026.69;2105174;28;20047;-85
2021/08/30 02:22:42;;;;;;;3.03;1.13;;;;;;;10.75;100.00;93023.53;2109077;28;20523;-85
2021/08/30 02:24:07;;;;;;;0.98;0.93;;;;;;;10.72;100.00;93021.69;2105248;28;20028;-85
2021/08/30 02:25:19;;;;;;;1.10;0.95;;;;;;;10.67;100.00;93017.59;2117129;27;20034;-84
2021/08/30 02:26:24;;;;;;;2.83;1.40;;;;;;;10.61;100.00;93016.59;2113278;28;20020;-86
2021/08/30 02:27:28;;;;;;;0.93;0.90;;;;;;;10.63;100.00;93013.53;2114149;27;20114;-83
2021/08/30 02:28:29;;;;;;;0.80;0.80;;;;;;;10.67;100.00;93022.19;2121147;27;20077;-84
2021/08/30 02:29:41;;;;;;;2.20;1.15;;;;;;;10.63;100.00;93018.88;2108350;28;20028;-85
2021/08/30 02:30:42;;;;;;;1.20;1.10;;;;;;;10.63;100.00;93024.97;2117257;27;20412;-84
2021/08/30 02:31:48;;;;;;;1.35;1.20;;;;;;;10.64;100.00;93021.13;2125397;27;20027;-86
2021/08/30 02:32:52;;;;;;;1.40;1.30;;;;;;;10.69;100.00;93027.88;2124963;27;20018;-86
2021/08/30 02:33:53;;;;;;;1.63;1.35;;;;;;;10.71;100.00;93025.53;2121517;27;20069;-85
2021/08/30 02:34:56;;;;;;;1.83;1.60;;;;;;;10.70;100.00;93022.09;2108203;28;20024;-83
2021/08/30 02:36:03;;;;;;;2.30;1.25;;;;;;;10.62;100.00;93023.44;2111637;28;20219;-86
2021/08/30 02:37:06;;;;;;;5.05;1.42;;;;;;;10.68;100.00;93026.38;2110981;28;20055;-85
2021/08/30 02:38:11;;;;;;;5.70;1.65;;;;;;;10.62;100.00;93025.34;2102695;28;20024;-85
2021/08/30 02:39:12;;;;;;;2.47;1.35;;;;;;;10.61;100.00;93027.28;2096615;28;20025;-86
2021/08/30 02:40:16;;;;;;;1.30;1.20;;;;;;;10.64;100.00;93023.78;2112385;28;20028;-83
2021/08/30 02:41:17;;;;;;;1.35;1.25;;;;;;;10.67;100.00;93030.19;2116646;27;20039;-84
2021/08/30 02:42:20;;;;;;;1.50;1.40;;;;;;;10.63;100.00;93019.63;2110174;28;20028;-87
2021/08/30 02:43:21;;;;;;;1.58;1.48;;;;;;;10.61;100.00;93021.94;2099941;28;20031;-84
2021/08/30 02:44:22;;;;;;;1.48;1.38;;;;;;;10.61;100.00;93021.94;2103574;28;20107;-85
2021/08/30 02:45:24;;;;;;;1.33;1.23;;;;;;;10.60;100.00;93023.13;2095123;28;20029;-83
2021/08/30 02:46:28;;;;;;;1.52;1.42;;;;;;;10.61;100.00;93026.53;2109232;27;20032;-84
2021/08/30 02:47:31;;;;;;;7.10;1.20;;;;;;;10.62;100.00;93022.69;2119589;28;20023;-85
2021/08/30 02:48:33;;;;;;;1.60;1.50;;;;;;;10.63;100.00;93019.63;2109950;28;20027;-87
2021/08/30 02:49:35;;;;;;;1.80;1.70;;;;;;;10.64;100.00;93018.44;2112303;28;20024;-86
2021/08/30 02:50:38;;;;;;;1.40;1.30;;;;;;;10.61;100.00;93019.25;2107751;28;20439;-86
2021/08/30 02:51:41;;;;;;;3.33;1.40;;;;;;;10.65;100.00;93021.84;2120663;28;20168;-86
2021/08/30 02:52:44;;;;;;;1.60;1.50;;;;;;;10.59;100.00;93017.03;2112284;28;20024;-87
2021/08/30 02:53:46;;;;;;;1.42;1.33;;;;;;;10.69;100.00;93017.19;2099734;28;20477;-84
2021/08/30 02:54:51;;;;;;;1.83;1.73;;;;;;;10.70;100.00;93016.75;2107910;28;20358;-85
2021/08/30 02:55:53;;;;;;;1.60;1.50;;;;;;;10.69;100.00;93020.59;2116664;28;20114;-85
2021/08/30 02:56:54;;;;;;;1.70;1.60;;;;;;;10.69;100.00;93017.94;2113278;27;20020;-83
2021/08/30 02:57:58;;;;;;;2.10;1.90;;;;;;;10.65;100.00;93011.16;2111979;28;20128;-85
2021/08/30 02:59:00;;;;;;;1.85;1.75;;;;;;;10.68;100.00;93015.69;2108259;28;20032;-83
2021/08/30 03:00:03;;;;;;;1.77;1.67;;;;;;;10.65;100.00;93024.53;2107802;28;20020;-86
2021/08/30 03:01:04;;;;;;;1.80;1.70;;;;;;;10.70;100.00;93018.69;2099768;28;20020;-84
2021/08/30 03:02:07;;;;;;;2.33;1.83;;;;;;;10.70;100.00;93016.00;2101461;28;20086;-83
2021/08/30 03:03:09;;;;;;;3.70;1.88;;;;;;;10.67;100.00;93017.59;2115065;27;20388;-85
2021/08/30 03:04:12;;;;;;;4.22;1.73;;;;;;;10.73;100.00;93017.84;2119201;28;20475;-85
2021/08/30 03:05:14;;;;;;;2.08;1.88;;;;;;;10.74;100.00;93012.06;2111708;28;20024;-82
2021/08/30 03:06:17;;;;;;;8.40;2.55;;;;;;;10.72;100.00;93011.75;2111309;28;20058;-86
2021/08/30 03:07:18;;;;;;;3.03;2.38;;;;;;;10.70;100.00;93007.97;2116342;27;20099;-84
2021/08/30 03:08:20;;;;;;;1.92;1.83;;;;;;;10.69;100.00;93007.25;2116948;28;20046;-85
2021/08/30 03:09:21;;;;;;;2.85;2.00;;;;;;;10.75;100.00;93018.91;2112234;28;20066;-83
2021/08/30 03:10:22;;;;;;;3.58;2.05;;;;;;;10.75;100.00;93015.50;2120075;28;20032;-84
2021/08/30 03:11:23;;;;;;;2.83;2.10;;;;;;;10.76;100.00;93020.44;2116770;27;20023;-86
2021/08/30 03:12:29;;;;;;;2.17;1.98;;;;;;;10.74;100.00;93008.66;2119553;28;20430;-84
2021/08/30 03:13:32;;;;;;;2.20;1.98;;;;;;;10.69;100.00;93007.25;2112690;28;20151;-83
2021/08/30 03:14:36;;;;;;;2.28;2.08;;;;;;;10.70;100.00;93013.34;2109995;28;20031;-83
2021/08/30 03:15:38;;;;;;;2.67;2.15;;;;;;;10.68;100.00;93010.34;2110468;28;20039;-85
2021/08/30 03:16:41;;;;;;;2.05;1.80;;;;;;;10.65;100.00;93005.81;2120315;28;20090;-87
2021/08/30 03:17:44;;;;;;;3.40;1.95;;;;;;;10.64;100.00;93009.66;2118586;28;20057;-84
2021/08/30 03:18:46;;;;;;;3.20;1.90;;;;;;;10.63;100.00;93008.16;2102396;28;20031;-85
2021/08/30 03:19:51;;;;;;;2.05;1.85;;;;;;;10.69;100.00;93012.59;2110514;27;20081;-84
2021/08/30 03:20:53;;;;;;;2.25;1.70;;;;;;;10.68;100.00;93010.34;2114599;28;20027;-86
2021/08/30 03:21:55;;;;;;;2.33;1.92;;;;;;;10.69;100.00;93015.25;2098001;28;20029;-84
2021/08/30 03:22:58;;;;;;;3.28;2.42;;;;;;;10.66;100.00;93013.41;2103327;28;20023;-83
2021/08/30 03:24:00;;;;;;;3.28;2.97;;;;;;;10.67;100.00;93019.50;2113274;28;20023;-85
2021/08/30 03:25:03;;;;;;;3.22;2.92;;;;;;;10.67;100.00;93016.84;2110784;28;20045;-85
2021/08/30 03:26:05;;;;;;;3.22;2.78;;;;;;;10.65;100.00;93016.50;2120891;27;20469;-86
2021/08/30 03:27:08;;;;;;;3.92;3.58;;;;;;;10.68;100.00;93011.09;2106243;28;20039;-86
2021/08/30 03:28:11;;;;;;;3.28;2.97;;;;;;;10.74;100.00;93020.09;2094361;28;20041;-84
2021/08/30 03:29:12;;;;;;;3.60;3.30;;;;;;;10.75;100.00;93015.50;2105096;28;20504;-83
2021/08/30 03:30:15;;;;;;;2.60;2.40;;;;;;;10.73;100.00;93018.59;2097984;28;20851;-84
2021/08/30 03:31:16;;;;;;;2.75;2.55;;;;;;;10.75;100.00;93010.16;2106405;28;20028;-86
2021/08/30 03:32:19;;;;;;;3.13;2.63;;;;;;;10.70;100.00;93013.34;2106273;28;20106;-83
2021/08/30 03:33:21;;;;;;;2.30;2.10;;;;;;;10.69;100.00;93014.50;2114669;28;20023;-84
2021/08/30 03:34:22;;;;;;;2.67;2.20;;;;;;;10.71;100.00;93022.84;2097350;28;20024;-82
2021/08/30 03:35:24;;;;;;;2.50;2.28;;;;;;;10.75;100.00;93012.81;2102700;28;20028;-84
2021/08/30 03:36:25;;;;;;;2.53;1.98;;;;;;;10.75;100.00;93015.50;2106141;28;20036;-86
2021/08/30 03:37:26;;;;;;;2.13;1.90;;;;;;;10.72;100.00;93009.09;2106297;28;20035;-87
2021/08/30 03:38:29;;;;;;;2.42;2.20;;;;;;;10.73;100.00;93007.91;2101901;28;20583;-85
2021/08/30 03:39:30;;;;;;;2.40;2.20;;;;;;;10.74;100.00;93009.41;2095265;28;20035;-86
2021/08/30 03:40:32;;;;;;;2.60;2.40;;;;;;;10.74;100.00;93012.06;2097422;28;20229;-84
2021/08/30 03:41:34;;;;;;;3.00;2.33;;;;;;;10.75;100.00;93005.56;2101966;28;20024;-84
2021/08/30 03:42:35;;;;;;;2.47;2.28;;;;;;;10.72;100.00;93011.00;2112598;28;20169;-84
2021/08/30 03:43:37;;;;;;;2.42;1.70;;;;;;;10.67;100.00;93008.81;2101901;28;20067;-84
2021/08/30 03:44:38;;;;;;;2.30;2.10;;;;;;;10.70;100.00;93010.66;2106209;28;20028;-85
2021/08/30 03:45:40;;;;;;;2.22;2.00;;;;;;;10.74;100.00;93005.97;2104517;28;20028;-85
2021/08/30 03:46:41;;;;;;;1.70;1.60;;;;;;;10.69;100.00;93001.13;2097349;28;20417;-85
2021/08/30 03:47:42;;;;;;;1.60;1.50;;;;;;;10.66;100.00;93005.38;2104929;28;20024;-85
2021/08/30 03:48:44;;;;;;;3.20;1.67;;;;;;;10.66;100.00;92999.28;2113627;28;20510;-83
2021/08/30 03:49:46;;;;;;;1.80;1.50;;;;;;;10.66;100.00;93004.66;2109701;28;20491;-83
2021/08/30 03:50:47;;;;;;;1.67;1.58;;;;;;;10.67;100.00;93003.47;2102241;28;20500;-84
2021/08/30 03:51:50;;;;;;;1.50;1.40;;;;;;;10.63;100.00;93000.91;2101048;28;20043;-84
2021/08/30 03:52:52;;;;;;;1.52;1.23;;;;;;;10.61;100.00;92997.88;2106028;28;20441;-86
2021/08/30 03:53:55;;;;;;;2.20;1.15;;;;;;;10.64;100.00;92993.63;2102517;28;20027;-86
2021/08/30 03:54:56;;;;;;;1.30;1.20;;;;;;;10.65;100.00;93000.47;2098093;28;20521;-84
2021/08/30 03:55:58;;;;;;;1.50;0.75;;;;;;;10.66;100.00;92997.38;2094707;28;20469;-85
2021/08/30 03:57:00;;;;;;;1.20;1.10;;;;;;;10.70;100.00;92997.28;2101558;28;20020;-84
2021/08/30 03:58:05;;;;;;;1.40;1.30;;;;;;;10.68;100.00;92983.59;2106024;28;20107;-86
2021/08/30 03:59:07;;;;;;;0.85;0.85;;;;;;;10.74;100.00;92990.69;2112665;28;20027;-85
2021/08/30 04:00:09;;;;;;;3.50;1.20;;;;;;;10.73;100.00;92991.13;2113096;27;20298;-85
2021/08/30 04:01:11;;;;;;;1.23;1.13;;;;;;;10.58;100.00;92988.78;2103230;28;20028;-85
2021/08/30 04:02:13;;;;;;;1.30;1.20;;;;;;;10.69;100.00;92991.19;2110334;28;20031;-86
2021/08/30 04:03:16;;;;;;;1.63;1.08;;;;;;;10.65;100.00;92984.44;2113239;27;20455;-86
2021/08/30 04:04:21;;;;;;;1.67;1.50;;;;;;;10.62;100.00;92987.94;2110105;28;20090;-83
2021/08/30 04:05:25;;;;;;;1.40;1.30;;;;;;;10.58;100.00;92978.09;2110655;28;20073;-85
2021/08/30 04:06:30;;;;;;;1.42;1.33;;;;;;;10.67;100.00;92990.09;2110525;28;20031;-85
2021/08/30 04:07:33;;;;;;;3.28;1.80;;;;;;;10.67;100.00;92990.88;2110025;28;20023;-84
2021/08/30 04:08:34;;;;;;;1.65;1.30;;;;;;;10.72;100.00;92987.69;2097483;28;20103;-85
2021/08/30 04:09:36;;;;;;;1.70;1.60;;;;;;;10.71;100.00;92993.44;2097584;28;20033;-86
2021/08/30 04:10:37;;;;;;;1.65;1.55;;;;;;;10.66;100.00;92988.59;2097619;28;20119;-86
2021/08/30 04:11:38;;;;;;;1.50;1.40;;;;;;;10.64;100.00;92993.63;2097549;28;20024;-86
2021/08/30 04:12:40;;;;;;;1.70;1.60;;;;;;;10.64;100.00;92998.97;2112983;28;20028;-84
2021/08/30 04:13:41;;;;;;;1.60;1.50;;;;;;;10.59;100.00;92990.28;2114463;28;20035;-85
2021/08/30 04:14:43;;;;;;;1.60;1.35;;;;;;;10.58;100.00;92990.72;2105628;28;20058;-85
2021/08/30 04:15:44;;;;;;;2.78;1.52;;;;;;;10.67;100.00;92982.84;2106285;28;20024;-85
2021/08/30 04:16:46;;;;;;;1.42;1.33;;;;;;;10.76;100.00;92998.31;2118844;27;20665;-86
2021/08/30 04:17:47;;;;;;;1.70;1.60;;;;;;;10.72;100.00;92989.63;2119145;27;20035;-85
2021/08/30 04:18:48;;;;;;;1.70;1.50;;;;;;;10.71;100.00;92988.88;2110114;28;20028;-85
2021/08/30 04:19:49;;;;;;;1.40;1.30;;;;;;;10.66;100.00;92994.69;2109616;28;20059;-83
2021/08/30 04:20:50;;;;;;;1.50;1.40;;;;;;;10.64;100.00;92993.63;2101643;28;20024;-86
2021/08/30 04:21:51;;;;;;;2.17;1.33;;;;;;;10.67;100.00;92992.78;2101583;28;20064;-85
2021/08/30 04:22:52;;;;;;;1.50;1.40;;;;;;;10.71;100.00;92999.56;2105816;28;20023;-85
2021/08/30 04:23:53;;;;;;;1.60;1.48;;;;;;;10.65;100.00;92995.88;2094167;28;20031;-86
2021/08/30 04:24:54;;;;;;;1.63;1.48;;;;;;;10.61;100.00;92989.13;2092828;28;20469;-84
2021/08/30 04:25:56;;;;;;;2.22;1.65;;;;;;;10.66;100.00;92988.59;2092836;28;20119;-86
2021/08/30 04:26:56;;;;;;;1.50;1.40;;;;;;;10.63;100.00;92989.47;2102585;28;20102;-86
2021/08/30 04:27:57;;;;;;;1.48;1.38;;;;;;;10.62;100.00;92994.03;2104543;28;20019;-87
2021/08/30 04:28:58;;;;;;;1.30;1.20;;;;;;;10.66;100.00;92991.28;2101706;28;20035;-84
2021/08/30 04:29:59;;;;;;;1.77;1.27;;;;;;;10.64;100.00;92985.63;2105041;28;20534;-85
2021/08/30 04:31:00;;;;;;;1.35;1.25;;;;;;;10.62;100.00;92987.94;2115801;27;20393;-86
2021/08/30 04:32:02;;;;;;;1.48;1.30;;;;;;;10.66;100.00;92991.28;2101248;28;20042;-84
2021/08/30 04:33:06;;;;;;;1.60;1.50;;;;;;;10.63;100.00;92984.13;2091155;28;20052;-84
2021/08/30 04:34:07;;;;;;;1.73;1.60;;;;;;;10.63;100.00;92986.78;2106858;27;20028;-85
2021/08/30 04:35:09;;;;;;;1.85;1.58;;;;;;;10.66;100.00;92983.25;2099074;28;20111;-84
2021/08/30 04:36:09;;;;;;;1.70;1.60;;;;;;;10.67;100.00;92987.44;2101636;28;20032;-84
2021/08/30 04:37:10;;;;;;;1.95;1.83;;;;;;;10.76;100.00;92991.03;2103955;28;20027;-85
2021/08/30 04:38:13;;;;;;;1.60;1.50;;;;;;;10.75;100.00;92994.84;2099993;28;20020;-84
2021/08/30 04:39:14;;;;;;;1.92;1.70;;;;;;;10.70;100.00;92994.63;2105114;28;20491;-84
2021/08/30 04:40:15;;;;;;;1.95;1.75;;;;;;;10.74;100.00;92997.97;2105555;28;20035;-83
2021/08/30 04:41:16;;;;;;;2.25;1.67;;;;;;;10.69;100.00;93004.56;2113708;28;20054;-85
2021/08/30 04:42:18;;;;;;;3.03;1.63;;;;;;;10.64;100.00;92998.97;2101281;28;20024;-85
2021/08/30 04:43:18;;;;;;;2.50;1.90;;;;;;;10.62;100.00;92999.38;2097211;28;20039;-85
2021/08/30 04:44:19;;;;;;;3.25;2.40;;;;;;;10.73;100.00;93007.16;2093082;28;20108;-85
2021/08/30 04:45:20;;;;;;;2.75;2.10;;;;;;;10.66;100.00;93008.06;2101702;28;20071;-84
2021/08/30 04:46:21;;;;;;;2.38;2.10;;;;;;;10.69;100.00;92996.53;2105860;28;20409;-86
2021/08/30 04:47:22;;;;;;;2.17;1.95;;;;;;;10.80;100.00;93005.06;2113866;28;20042;-83
2021/08/30 04:48:23;;;;;;;1.70;1.60;;;;;;;10.76;100.00;93011.69;2115306;27;20061;-84
2021/08/30 04:49:24;;;;;;;2.25;1.80;;;;;;;10.77;100.00;93002.47;2122594;27;20100;-86
2021/08/30 04:50:25;;;;;;;2.08;1.80;;;;;;;10.72;100.00;93008.34;2121901;27;20026;-86
2021/08/30 04:51:26;;;;;;;2.95;2.45;;;;;;;10.75;100.00;93005.56;2102126;28;20039;-84
2021/08/30 04:52:27;;;;;;;2.85;2.40;;;;;;;10.74;100.00;93009.41;2093855;28;20048;-83
2021/08/30 04:53:28;;;;;;;2.72;1.88;;;;;;;10.64;100.00;93012.34;2113025;28;20092;-85
2021/08/30 04:54:29;;;;;;;2.60;2.08;;;;;;;10.73;100.00;93004.47;2102242;28;20032;-84
2021/08/30 04:55:30;;;;;;;1.60;1.48;;;;;;;10.72;100.00;93014.44;2104302;28;20457;-86
2021/08/30 04:56:31;;;;;;;2.38;2.17;;;;;;;10.72;100.00;93006.41;2111126;28;20019;-84